| time (UTC) | temp C | wind direction | speed KPH | gust KPH | rain 1hr cm | rain 24hr cm | rain mn cm | humidity % | barometer mb |
| 20260510141528 | 23 | 117 | 0.0 | 4.8 | 0.00 | 0.05 | 0.03 | 89 | 1013.0 |
| 20260510140025 | 22 | 129 | 0.0 | 3.2 | 0.00 | 0.05 | 0.03 | 90 | 1012.8 |
| 20260510134524 | 21 | 59 | 0.0 | 1.6 | 0.00 | 0.05 | 0.03 | 91 | 1012.6 |
| 20260510133022 | 21 | 175 | 0.0 | 3.2 | 0.03 | 0.05 | 0.03 | 91 | 1012.5 |
| 20260510131520 | 20 | 96 | 0.0 | 0.0 | 0.03 | 0.05 | 0.03 | 91 | 1012.2 |
| 20260510130018 | 20 | 97 | 0.0 | 1.6 | 0.03 | 0.05 | 0.03 | 91 | 1012.0 |
| 20260510124517 | 20 | 97 | 0.0 | 1.6 | 0.03 | 0.05 | 0.03 | 92 | 1011.7 |
| 20260510123015 | 18 | 125 | 0.0 | 1.6 | 0.00 | 0.03 | 0.00 | 92 | 1011.7 |
| 20260510121515 | 18 | 125 | 0.0 | 0.0 | 0.00 | 0.03 | 0.00 | 91 | 1011.5 |
| 20260510120016 | 18 | 125 | 0.0 | 0.0 | 0.00 | 0.03 | 0.00 | 91 | 1011.5 |
| 20260510114513 | 18 | 125 | 0.0 | 0.0 | 0.00 | 0.03 | 0.00 | 91 | 1011.3 |
| 20260510113015 | 18 | 125 | 0.0 | 0.0 | 0.00 | 0.03 | 0.00 | 90 | 1011.4 |
| 20260510111509 | 19 | 125 | 0.0 | 0.0 | 0.00 | 0.03 | 0.00 | 90 | 1011.4 |
| 20260510110015 | 19 | 125 | 0.0 | 0.0 | 0.00 | 0.03 | 0.00 | 90 | 1011.4 |
| 20260510104509 | 19 | 128 | 0.0 | 0.0 | 0.00 | 0.03 | 0.00 | 90 | 1011.3 |
| 20260510103006 | 19 | 160 | 0.0 | 0.0 | 0.00 | 0.03 | 0.00 | 90 | 1011.3 |
| 20260510101506 | 19 | 160 | 0.0 | 0.0 | 0.00 | 0.03 | 0.00 | 89 | 1011.5 |
| 20260510100005 | 19 | 160 | 0.0 | 0.0 | 0.00 | 0.03 | 0.00 | 89 | 1011.6 |
| 20260510094505 | 19 | 160 | 0.0 | 0.0 | 0.00 | 0.03 | 0.00 | 89 | 1011.8 |
| 20260510093100 | 20 | 160 | 0.0 | 0.0 | 0.00 | 0.03 | 0.00 | 88 | 1011.5 |
| 20260510091557 | 20 | 160 | 0.0 | 0.0 | 0.00 | 0.03 | 0.00 | 87 | 1011.3 |
| 20260510090055 | 20 | 160 | 0.0 | 0.0 | 0.00 | 0.03 | 0.00 | 86 | 1011.3 |
| 20260510084601 | 20 | 160 | 0.0 | 0.0 | 0.00 | 0.03 | 0.00 | 86 | 1011.3 |
| 20260510083113 | 20 | 160 | 0.0 | 0.0 | 0.00 | 0.03 | 0.00 | 86 | 1011.3 |
| 20260510081611 | 20 | 160 | 0.0 | 1.6 | 0.00 | 0.03 | 0.00 | 86 | 1011.2 |
| 20260510080054 | 20 | 130 | 0.0 | 0.0 | 0.00 | 0.03 | 0.00 | 87 | 1011.2 |
| 20260510074547 | 21 | 130 | 0.0 | 0.0 | 0.00 | 0.03 | 0.00 | 86 | 1011.2 |
| 20260510073050 | 21 | 130 | 0.0 | 0.0 | 0.00 | 0.03 | 0.00 | 86 | 1011.1 |
| 20260510071544 | 21 | 130 | 0.0 | 0.0 | 0.00 | 0.03 | 0.00 | 86 | 1011.1 |
| 20260510070042 | 21 | 130 | 0.0 | 0.0 | 0.00 | 0.03 | 0.00 | 85 | 1011.1 |
| 20260510064539 | 22 | 130 | 0.0 | 0.0 | 0.00 | 0.03 | 0.00 | 85 | 1011.2 |
| 20260510063036 | 22 | 130 | 0.0 | 0.0 | 0.00 | 0.03 | 0.00 | 84 | 1011.1 |
| 20260510061535 | 22 | 130 | 0.0 | 1.6 | 0.00 | 0.03 | 0.00 | 83 | 1011.1 |
| 20260510060038 | 22 | 143 | 0.0 | 0.0 | 0.00 | 0.03 | 0.00 | 83 | 1011.1 |
| 20260510054528 | 23 | 142 | 0.0 | 0.0 | 0.00 | 0.03 | 0.00 | 82 | 1011.1 |
| 20260510053025 | 23 | 117 | 0.0 | 1.6 | 0.00 | 0.03 | 0.00 | 82 | 1011.1 |
| 20260510051523 | 23 | 169 | 0.0 | 1.6 | 0.00 | 0.03 | 0.00 | 82 | 1011.0 |
| 20260510050020 | 23 | 124 | 0.0 | 0.0 | 0.00 | 0.03 | 0.00 | 82 | 1010.8 |
| 20260510044520 | 23 | 124 | 0.0 | 1.6 | 0.00 | 0.03 | 0.03 | 82 | 1010.7 |
| 20260510043019 | 23 | 226 | 0.0 | 1.6 | 0.00 | 0.03 | 0.03 | 82 | 1010.7 |
| 20260510041520 | 22 | 223 | 0.0 | 1.6 | 0.00 | 0.03 | 0.03 | 84 | 1010.7 |
| 20260510040018 | 23 | 306 | 0.0 | 0.0 | 0.00 | 0.03 | 0.03 | 84 | 1010.5 |
| 20260510034517 | 22 | 306 | 0.0 | 0.0 | 0.00 | 0.03 | 0.03 | 87 | 1010.4 |
| 20260510033017 | 22 | 306 | 0.0 | 0.0 | 0.00 | 0.03 | 0.03 | 86 | 1010.2 |
| 20260510031517 | 22 | 306 | 0.0 | 0.0 | 0.00 | 0.03 | 0.03 | 86 | 1010.1 |
| 20260510030016 | 23 | 306 | 0.0 | 0.0 | 0.00 | 0.03 | 0.03 | 85 | 1009.9 |
| 20260510024522 | 23 | 306 | 0.0 | 0.0 | 0.00 | 0.03 | 0.03 | 83 | 1009.7 |
| 20260510023015 | 23 | 306 | 0.0 | 0.0 | 0.00 | 0.03 | 0.03 | 82 | 1009.7 |
| 20260510021516 | 23 | 306 | 0.0 | 0.0 | 0.00 | 0.03 | 0.03 | 81 | 1009.6 |
| 20260510020014 | 23 | 306 | 0.0 | 0.0 | 0.00 | 0.03 | 0.03 | 82 | 1009.4 |
| 20260510014514 | 24 | 306 | 0.0 | 0.0 | 0.00 | 0.03 | 0.03 | 83 | 1009.3 |
| 20260510013013 | 24 | 306 | 0.0 | 0.0 | 0.00 | 0.03 | 0.03 | 82 | 1009.0 |
| 20260510011514 | 25 | 306 | 0.0 | 0.0 | 0.00 | 0.03 | 0.03 | 80 | 1008.8 |
| 20260510010011 | 25 | 306 | 0.0 | 0.0 | 0.00 | 0.03 | 0.03 | 79 | 1008.7 |
| 20260510004511 | 25 | 20 | 0.0 | 1.6 | 0.00 | 0.03 | 0.03 | 77 | 1008.4 |
| 20260510003010 | 25 | 39 | 0.0 | 0.0 | 0.00 | 0.03 | 0.03 | 77 | 1008.3 |
| 20260510001510 | 24 | 39 | 0.0 | 0.0 | 0.00 | 0.03 | 0.03 | 77 | 1008.1 |
| 20260510000009 | 24 | 39 | 0.0 | 0.0 | 0.00 | 0.03 | 0.03 | 76 | 1007.9 |
| 20260509234509 | 25 | 39 | 0.0 | 1.6 | 0.00 | 0.03 | 0.03 | 81 | 1007.8 |
| 20260509233008 | 26 | 219 | 0.0 | 0.0 | 0.00 | 0.03 | 0.03 | 80 | 1007.5 |
| 20260509231509 | 28 | 219 | 0.0 | 8.0 | 0.00 | 0.03 | 0.03 | 66 | 1007.4 |
| 20260509230007 | 29 | 288 | 0.0 | 1.6 | 0.00 | 0.03 | 0.03 | 58 | 1008.3 |
| 20260509224506 | 32 | 167 | 0.0 | 0.0 | 0.00 | 0.03 | 0.03 | 49 | 1008.1 |
| 20260509223006 | 33 | 251 | 0.0 | 6.4 | 0.00 | 0.03 | 0.03 | 45 | 1007.8 |
| 20260509221506 | 34 | 124 | 0.0 | 1.6 | 0.00 | 0.03 | 0.03 | 45 | 1007.6 |
| 20260509220010 | 34 | 59 | 0.0 | 4.8 | 0.00 | 0.03 | 0.03 | 48 | 1007.8 |
| 20260509214501 | 34 | 92 | 0.0 | 4.8 | 0.00 | 0.03 | 0.03 | 48 | 1007.9 |
| 20260509213001 | 33 | 167 | 0.0 | 11.3 | 0.00 | 0.03 | 0.03 | 48 | 1007.9 |
| 20260509211559 | 33 | 127 | 0.0 | 8.0 | 0.00 | 0.03 | 0.03 | 47 | 1008.0 |
| 20260509210107 | 33 | 18 | 0.0 | 3.2 | 0.00 | 0.03 | 0.03 | 47 | 1008.2 |
| 20260509204603 | 34 | 18 | 0.0 | 4.8 | 0.00 | 0.03 | 0.03 | 46 | 1008.6 |
| 20260509203052 | 33 | 106 | 0.0 | 6.4 | 0.00 | 0.03 | 0.03 | 48 | 1008.8 |
| 20260509201551 | 33 | 68 | 0.0 | 9.7 | 0.00 | 0.03 | 0.03 | 47 | 1008.9 |
| 20260509200051 | 34 | 121 | 0.0 | 6.4 | 0.00 | 0.03 | 0.03 | 48 | 1009.1 |
| 20260509194546 | 33 | 106 | 0.0 | 4.8 | 0.00 | 0.03 | 0.03 | 51 | 1009.4 |
| 20260509193043 | 33 | 68 | 0.0 | 8.0 | 0.00 | 0.03 | 0.03 | 50 | 1009.8 |
| 20260509191542 | 33 | 82 | 0.0 | 6.4 | 0.00 | 0.03 | 0.03 | 53 | 1010.0 |
| 20260509190037 | 32 | 97 | 0.0 | 4.8 | 0.00 | 0.03 | 0.03 | 56 | 1010.1 |
| 20260509184540 | 31 | 45 | 0.0 | 8.0 | 0.00 | 0.03 | 0.03 | 59 | 1010.2 |
| 20260509183035 | 32 | 34 | 0.0 | 4.8 | 0.00 | 0.03 | 0.03 | 56 | 1010.4 |
| 20260509181540 | 32 | 94 | 0.0 | 6.4 | 0.00 | 0.03 | 0.03 | 56 | 1010.6 |
| 20260509180030 | 31 | 95 | 0.0 | 4.8 | 0.00 | 0.03 | 0.03 | 58 | 1010.7 |
| 20260509174535 | 31 | 91 | 0.0 | 4.8 | 0.00 | 0.03 | 0.03 | 59 | 1010.9 |
| 20260509173028 | 31 | 95 | 0.0 | 6.4 | 0.00 | 0.03 | 0.03 | 64 | 1011.0 |
| 20260509171524 | 30 | 82 | 0.0 | 6.4 | 0.00 | 0.03 | 0.03 | 65 | 1011.2 |
| 20260509170022 | 29 | 41 | 0.0 | 1.6 | 0.00 | 0.03 | 0.03 | 70 | 1011.2 |
| 20260509164519 | 29 | 89 | 0.0 | 3.2 | 0.00 | 0.03 | 0.03 | 71 | 1011.3 |
| 20260509163020 | 28 | 55 | 0.0 | 3.2 | 0.00 | 0.03 | 0.03 | 75 | 1011.4 |
| 20260509161512 | 27 | 73 | 0.0 | 8.0 | 0.00 | 0.03 | 0.03 | 79 | 1011.3 |
| 20260509160009 | 26 | 203 | 0.0 | 1.6 | 0.00 | 0.03 | 0.03 | 86 | 1011.2 |
| 20260509154503 | 25 | 115 | 0.0 | 3.2 | 0.03 | 0.03 | 0.03 | 89 | 1011.4 |
| 20260509153105 | 24 | 122 | 0.0 | 6.4 | 0.03 | 0.03 | 0.03 | 90 | 1011.9 |
| 20260509151559 | 23 | 356 | 0.0 | 0.0 | 0.03 | 0.03 | 0.03 | 92 | 1012.1 |
| 20260509150056 | 23 | 356 | 0.0 | 0.0 | 0.03 | 0.03 | 0.03 | 92 | 1012.1 |
| 20260509144552 | 22 | 356 | 0.0 | 0.0 | 0.00 | 0.00 | 0.00 | 92 | 1012.3 |
| 20260509143054 | 22 | 357 | 0.0 | 0.0 | 0.00 | 0.00 | 0.00 | 92 | 1012.3 |